sensor_id;sensor_type;location;lat;lon;timestamp;pressure;altitude;pressure_sealevel;temperature;humidity
61361;BME280;47232;47.506;18.936;2022-10-16T00:01:46;98775.78;;;14.85;58.19
61361;BME280;47232;47.506;18.936;2022-10-16T00:04:12;98772.36;;;14.83;58.13
61361;BME280;47232;47.506;18.936;2022-10-16T00:06:38;98764.64;;;14.81;58.28
61361;BME280;47232;47.506;18.936;2022-10-16T00:09:04;98764.84;;;14.79;58.15
61361;BME280;47232;47.506;18.936;2022-10-16T00:11:32;98765.93;;;14.75;58.19
61361;BME280;47232;47.506;18.936;2022-10-16T00:14:07;98764.75;;;14.70;58.30
61361;BME280;47232;47.506;18.936;2022-10-16T00:16:34;98763.05;;;14.67;58.31
61361;BME280;47232;47.506;18.936;2022-10-16T00:18:59;98760.30;;;14.62;58.32
61361;BME280;47232;47.506;18.936;2022-10-16T00:21:27;98763.60;;;14.57;58.19
61361;BME280;47232;47.506;18.936;2022-10-16T00:23:57;98770.64;;;14.53;58.34
61361;BME280;47232;47.506;18.936;2022-10-16T00:26:25;98774.15;;;14.50;58.48
61361;BME280;47232;47.506;18.936;2022-10-16T00:28:51;98776.17;;;14.47;58.42
61361;BME280;47232;47.506;18.936;2022-10-16T00:31:19;98781.94;;;14.45;58.62
61361;BME280;47232;47.506;18.936;2022-10-16T00:33:45;98784.34;;;14.43;58.56
61361;BME280;47232;47.506;18.936;2022-10-16T00:36:13;98782.76;;;14.40;58.71
61361;BME280;47232;47.506;18.936;2022-10-16T00:38:39;98784.94;;;14.38;58.68
61361;BME280;47232;47.506;18.936;2022-10-16T00:41:07;98785.80;;;14.37;58.71
61361;BME280;47232;47.506;18.936;2022-10-16T00:46:09;98783.64;;;14.33;58.56
61361;BME280;47232;47.506;18.936;2022-10-16T00:48:36;98779.86;;;14.32;58.72
61361;BME280;47232;47.506;18.936;2022-10-16T00:51:02;98782.04;;;14.30;58.80
61361;BME280;47232;47.506;18.936;2022-10-16T00:53:27;98788.10;;;14.27;58.69
61361;BME280;47232;47.506;18.936;2022-10-16T00:55:53;98793.71;;;14.26;58.72
61361;BME280;47232;47.506;18.936;2022-10-16T00:58:19;98796.16;;;14.25;58.95
61361;BME280;47232;47.506;18.936;2022-10-16T01:00:45;98794.16;;;14.28;59.18
61361;BME280;47232;47.506;18.936;2022-10-16T01:03:27;98798.41;;;14.30;59.01
61361;BME280;47232;47.506;18.936;2022-10-16T01:11:48;98803.19;;;14.32;58.85
61361;BME280;47232;47.506;18.936;2022-10-16T01:15:08;98804.95;;;14.32;58.67
61361;BME280;47232;47.506;18.936;2022-10-16T01:17:09;98802.73;;;14.29;58.42
61361;BME280;47232;47.506;18.936;2022-10-16T01:20:00;98806.85;;;14.23;58.71
61361;BME280;47232;47.506;18.936;2022-10-16T01:22:43;98814.71;;;14.19;58.77
61361;BME280;47232;47.506;18.936;2022-10-16T01:25:22;98815.52;;;14.15;58.69
61361;BME280;47232;47.506;18.936;2022-10-16T01:27:51;98816.93;;;14.10;58.77
61361;BME280;47232;47.506;18.936;2022-10-16T01:30:23;98819.08;;;14.04;58.72
61361;BME280;47232;47.506;18.936;2022-10-16T01:33:30;98815.17;;;13.99;58.59
61361;BME280;47232;47.506;18.936;2022-10-16T01:36:02;98811.38;;;13.92;58.61
61361;BME280;47232;47.506;18.936;2022-10-16T01:38:36;98809.61;;;13.87;58.65
61361;BME280;47232;47.506;18.936;2022-10-16T01:41:20;98811.34;;;13.82;59.12
61361;BME280;47232;47.506;18.936;2022-10-16T01:43:50;98808.47;;;13.75;59.02
61361;BME280;47232;47.506;18.936;2022-10-16T01:46:20;98810.55;;;13.68;59.01
61361;BME280;47232;47.506;18.936;2022-10-16T01:48:49;98812.86;;;13.61;59.16
61361;BME280;47232;47.506;18.936;2022-10-16T01:51:17;98814.45;;;13.55;59.06
61361;BME280;47232;47.506;18.936;2022-10-16T01:53:48;98819.86;;;13.50;59.29
61361;BME280;47232;47.506;18.936;2022-10-16T01:56:17;98825.38;;;13.47;59.40
61361;BME280;47232;47.506;18.936;2022-10-16T01:58:49;98829.95;;;13.44;59.26
61361;BME280;47232;47.506;18.936;2022-10-16T02:01:18;98832.10;;;13.42;59.26
61361;BME280;47232;47.506;18.936;2022-10-16T02:03:46;98832.52;;;13.41;59.24
61361;BME280;47232;47.506;18.936;2022-10-16T02:06:13;98834.30;;;13.39;59.32
61361;BME280;47232;47.506;18.936;2022-10-16T02:08:39;98837.13;;;13.37;59.89
61361;BME280;47232;47.506;18.936;2022-10-16T02:11:09;98832.16;;;13.35;59.98
61361;BME280;47232;47.506;18.936;2022-10-16T02:13:42;98835.43;;;13.34;60.38
61361;BME280;47232;47.506;18.936;2022-10-16T02:16:11;98836.08;;;13.33;60.63
61361;BME280;47232;47.506;18.936;2022-10-16T02:18:37;98836.98;;;13.31;60.86
61361;BME280;47232;47.506;18.936;2022-10-16T02:26:45;98833.20;;;13.27;61.04
61361;BME280;47232;47.506;18.936;2022-10-16T02:29:17;98835.42;;;13.25;60.46
61361;BME280;47232;47.506;18.936;2022-10-16T02:31:48;98835.13;;;13.26;60.47
61361;BME280;47232;47.506;18.936;2022-10-16T02:34:16;98832.48;;;13.23;60.32
61361;BME280;47232;47.506;18.936;2022-10-16T02:36:44;98839.16;;;13.23;60.24
61361;BME280;47232;47.506;18.936;2022-10-16T02:39:11;98843.83;;;13.22;60.18
61361;BME280;47232;47.506;18.936;2022-10-16T02:41:37;98845.45;;;13.20;59.92
61361;BME280;47232;47.506;18.936;2022-10-16T02:44:02;98848.64;;;13.18;59.67
61361;BME280;47232;47.506;18.936;2022-10-16T02:46:28;98845.14;;;13.15;59.78
61361;BME280;47232;47.506;18.936;2022-10-16T02:48:53;98846.17;;;13.13;59.90
61361;BME280;47232;47.506;18.936;2022-10-16T02:51:19;98847.83;;;13.10;59.59
61361;BME280;47232;47.506;18.936;2022-10-16T02:53:44;98853.48;;;13.06;59.87
61361;BME280;47232;47.506;18.936;2022-10-16T02:56:09;98858.08;;;13.03;59.87
61361;BME280;47232;47.506;18.936;2022-10-16T02:58:35;98851.89;;;13.00;59.97
61361;BME280;47232;47.506;18.936;2022-10-16T03:01:00;98851.31;;;12.96;60.12
61361;BME280;47232;47.506;18.936;2022-10-16T03:03:26;98850.75;;;12.91;60.30
61361;BME280;47232;47.506;18.936;2022-10-16T03:05:51;98852.29;;;12.86;60.21
61361;BME280;47232;47.506;18.936;2022-10-16T03:08:16;98852.56;;;12.82;60.68
61361;BME280;47232;47.506;18.936;2022-10-16T03:10:42;98857.73;;;12.77;60.67
61361;BME280;47232;47.506;18.936;2022-10-16T03:13:08;98858.08;;;12.72;60.49
61361;BME280;47232;47.506;18.936;2022-10-16T03:15:33;98860.20;;;12.69;60.61
61361;BME280;47232;47.506;18.936;2022-10-16T03:17:59;98860.20;;;12.69;60.89
61361;BME280;47232;47.506;18.936;2022-10-16T03:20:25;98859.80;;;12.70;61.03
61361;BME280;47232;47.506;18.936;2022-10-16T03:22:50;98864.15;;;12.71;61.23
61361;BME280;47232;47.506;18.936;2022-10-16T03:25:16;98870.92;;;12.70;61.12
61361;BME280;47232;47.506;18.936;2022-10-16T03:27:41;98874.00;;;12.70;61.09
61361;BME280;47232;47.506;18.936;2022-10-16T03:30:07;98876.35;;;12.69;61.34
61361;BME280;47232;47.506;18.936;2022-10-16T03:32:32;98878.63;;;12.67;61.24
61361;BME280;47232;47.506;18.936;2022-10-16T03:34:58;98881.06;;;12.65;61.42
61361;BME280;47232;47.506;18.936;2022-10-16T03:37:23;98877.33;;;12.61;61.44
61361;BME280;47232;47.506;18.936;2022-10-16T03:39:49;98879.88;;;12.57;61.45
61361;BME280;47232;47.506;18.936;2022-10-16T03:42:14;98881.14;;;12.51;61.66
61361;BME280;47232;47.506;18.936;2022-10-16T03:44:40;98882.30;;;12.46;61.63
61361;BME280;47232;47.506;18.936;2022-10-16T03:47:05;98885.30;;;12.40;61.56
61361;BME280;47232;47.506;18.936;2022-10-16T03:49:30;98884.98;;;12.36;61.67
61361;BME280;47232;47.506;18.936;2022-10-16T03:51:56;98881.38;;;12.31;61.90
61361;BME280;47232;47.506;18.936;2022-10-16T03:54:21;98886.83;;;12.26;61.89
61361;BME280;47232;47.506;18.936;2022-10-16T03:56:47;98886.37;;;12.21;62.01
61361;BME280;47232;47.506;18.936;2022-10-16T03:59:13;98886.16;;;12.16;62.15
61361;BME280;47232;47.506;18.936;2022-10-16T04:01:38;98891.61;;;12.12;62.25
61361;BME280;47232;47.506;18.936;2022-10-16T04:04:04;98890.28;;;12.06;62.32
61361;BME280;47232;47.506;18.936;2022-10-16T04:06:29;98892.13;;;12.03;62.50
61361;BME280;47232;47.506;18.936;2022-10-16T04:08:55;98894.39;;;12.01;62.75
61361;BME280;47232;47.506;18.936;2022-10-16T04:11:21;98898.52;;;12.00;63.00
61361;BME280;47232;47.506;18.936;2022-10-16T04:13:47;98899.45;;;12.00;63.04
61361;BME280;47232;47.506;18.936;2022-10-16T04:16:12;98902.83;;;12.00;63.01
61361;BME280;47232;47.506;18.936;2022-10-16T04:18:37;98901.07;;;12.00;63.10
61361;BME280;47232;47.506;18.936;2022-10-16T04:21:04;98900.75;;;12.00;63.03
61361;BME280;47232;47.506;18.936;2022-10-16T04:23:29;98900.80;;;12.00;63.05
61361;BME280;47232;47.506;18.936;2022-10-16T04:25:55;98907.45;;;11.97;62.97
61361;BME280;47232;47.506;18.936;2022-10-16T04:28:20;98904.51;;;11.94;62.88
61361;BME280;47232;47.506;18.936;2022-10-16T04:30:45;98909.64;;;11.92;62.75
61361;BME280;47232;47.506;18.936;2022-10-16T04:33:11;98907.59;;;11.91;62.81
61361;BME280;47232;47.506;18.936;2022-10-16T04:35:38;98904.75;;;11.90;63.02
61361;BME280;47232;47.506;18.936;2022-10-16T04:38:03;98905.21;;;11.87;63.07
61361;BME280;47232;47.506;18.936;2022-10-16T04:40:29;98908.83;;;11.83;63.24
61361;BME280;47232;47.506;18.936;2022-10-16T04:42:58;98905.35;;;11.78;63.36
61361;BME280;47232;47.506;18.936;2022-10-16T04:45:24;98906.60;;;11.73;63.43
61361;BME280;47232;47.506;18.936;2022-10-16T04:47:50;98908.59;;;11.68;63.50
61361;BME280;47232;47.506;18.936;2022-10-16T04:50:15;98912.64;;;11.64;63.62
61361;BME280;47232;47.506;18.936;2022-10-16T04:52:40;98915.40;;;11.60;63.65
61361;BME280;47232;47.506;18.936;2022-10-16T04:55:06;98918.02;;;11.59;63.86
61361;BME280;47232;47.506;18.936;2022-10-16T04:57:32;98918.46;;;11.59;63.94
61361;BME280;47232;47.506;18.936;2022-10-16T04:59:59;98917.98;;;11.58;64.06
61361;BME280;47232;47.506;18.936;2022-10-16T05:02:25;98915.69;;;11.60;64.05
61361;BME280;47232;47.506;18.936;2022-10-16T05:04:51;98912.71;;;11.61;64.20
61361;BME280;47232;47.506;18.936;2022-10-16T05:07:17;98910.05;;;11.61;64.25
61361;BME280;47232;47.506;18.936;2022-10-16T05:09:42;98910.88;;;11.61;64.19
61361;BME280;47232;47.506;18.936;2022-10-16T05:12:07;98904.73;;;11.60;64.04
61361;BME280;47232;47.506;18.936;2022-10-16T05:14:33;98908.95;;;11.60;63.86
61361;BME280;47232;47.506;18.936;2022-10-16T05:16:59;98916.36;;;11.58;63.86
61361;BME280;47232;47.506;18.936;2022-10-16T05:19:25;98924.95;;;11.58;63.85
61361;BME280;47232;47.506;18.936;2022-10-16T05:21:51;98921.81;;;11.56;63.65
61361;BME280;47232;47.506;18.936;2022-10-16T05:24:16;98927.05;;;11.56;63.62
61361;BME280;47232;47.506;18.936;2022-10-16T05:26:41;98931.45;;;11.57;63.68
61361;BME280;47232;47.506;18.936;2022-10-16T05:29:07;98937.66;;;11.56;63.76
61361;BME280;47232;47.506;18.936;2022-10-16T05:31:32;98939.41;;;11.55;63.83
61361;BME280;47232;47.506;18.936;2022-10-16T05:33:59;98940.34;;;11.54;63.99
61361;BME280;47232;47.506;18.936;2022-10-16T05:36:25;98944.61;;;11.53;63.97
61361;BME280;47232;47.506;18.936;2022-10-16T05:38:51;98938.34;;;11.55;64.27
61361;BME280;47232;47.506;18.936;2022-10-16T05:41:16;98932.39;;;11.58;64.43
61361;BME280;47232;47.506;18.936;2022-10-16T05:43:46;98932.21;;;11.62;64.51
61361;BME280;47232;47.506;18.936;2022-10-16T05:46:12;98932.12;;;11.66;64.50
61361;BME280;47232;47.506;18.936;2022-10-16T05:48:38;98938.49;;;11.70;64.41
61361;BME280;47232;47.506;18.936;2022-10-16T05:51:06;98939.91;;;11.74;64.20
61361;BME280;47232;47.506;18.936;2022-10-16T05:53:34;98946.57;;;11.79;63.72
61361;BME280;47232;47.506;18.936;2022-10-16T05:56:00;98952.13;;;11.83;64.04
61361;BME280;47232;47.506;18.936;2022-10-16T05:58:29;98954.45;;;11.88;64.05
61361;BME280;47232;47.506;18.936;2022-10-16T06:01:00;98948.91;;;11.92;64.15
61361;BME280;47232;47.506;18.936;2022-10-16T06:03:26;98953.85;;;11.95;64.06
61361;BME280;47232;47.506;18.936;2022-10-16T06:05:51;98958.09;;;11.97;63.80
61361;BME280;47232;47.506;18.936;2022-10-16T06:08:18;98972.88;;;11.99;63.62
61361;BME280;47232;47.506;18.936;2022-10-16T06:10:45;98975.02;;;12.00;63.25
61361;BME280;47232;47.506;18.936;2022-10-16T06:13:12;98977.46;;;12.01;63.13
61361;BME280;47232;47.506;18.936;2022-10-16T06:15:38;98974.79;;;12.03;63.13
61361;BME280;47232;47.506;18.936;2022-10-16T06:18:07;98971.75;;;12.06;63.18
61361;BME280;47232;47.506;18.936;2022-10-16T06:20:32;98977.39;;;12.08;63.15
61361;BME280;47232;47.506;18.936;2022-10-16T06:22:57;98981.77;;;12.10;63.06
61361;BME280;47232;47.506;18.936;2022-10-16T06:25:23;98992.21;;;12.13;62.98
61361;BME280;47232;47.506;18.936;2022-10-16T06:27:48;99003.70;;;12.19;62.89
61361;BME280;47232;47.506;18.936;2022-10-16T06:30:14;99011.31;;;12.26;62.85
61361;BME280;47232;47.506;18.936;2022-10-16T06:32:39;99014.45;;;12.35;62.72
61361;BME280;47232;47.506;18.936;2022-10-16T06:35:05;99011.12;;;12.42;62.56
61361;BME280;47232;47.506;18.936;2022-10-16T06:37:30;99005.48;;;12.50;62.44
61361;BME280;47232;47.506;18.936;2022-10-16T06:39:55;99005.90;;;12.58;62.23
61361;BME280;47232;47.506;18.936;2022-10-16T06:42:21;99007.84;;;12.62;62.01
61361;BME280;47232;47.506;18.936;2022-10-16T06:44:46;99016.52;;;12.67;61.86
61361;BME280;47232;47.506;18.936;2022-10-16T06:47:12;99019.52;;;12.73;61.84
61361;BME280;47232;47.506;18.936;2022-10-16T06:49:37;99024.33;;;12.80;61.33
61361;BME280;47232;47.506;18.936;2022-10-16T06:52:02;99035.75;;;12.86;61.32
61361;BME280;47232;47.506;18.936;2022-10-16T06:54:28;99034.82;;;12.90;60.95
61361;BME280;47232;47.506;18.936;2022-10-16T06:56:54;99039.27;;;12.94;60.90
61361;BME280;47232;47.506;18.936;2022-10-16T06:59:22;99042.41;;;12.98;60.65
61361;BME280;47232;47.506;18.936;2022-10-16T07:01:48;99041.04;;;13.01;60.52
61361;BME280;47232;47.506;18.936;2022-10-16T07:04:13;99039.09;;;13.06;60.52
61361;BME280;47232;47.506;18.936;2022-10-16T07:06:39;99040.23;;;13.12;60.33
61361;BME280;47232;47.506;18.936;2022-10-16T07:09:09;99050.53;;;13.15;60.03
61361;BME280;47232;47.506;18.936;2022-10-16T07:11:36;99063.11;;;13.18;59.67
61361;BME280;47232;47.506;18.936;2022-10-16T07:14:02;99067.99;;;13.20;59.83
61361;BME280;47232;47.506;18.936;2022-10-16T07:16:30;99062.92;;;13.24;59.76
61361;BME280;47232;47.506;18.936;2022-10-16T07:19:01;99063.52;;;13.29;59.68
61361;BME280;47232;47.506;18.936;2022-10-16T07:21:32;99058.02;;;13.33;59.59
61361;BME280;47232;47.506;18.936;2022-10-16T07:24:02;99067.34;;;13.38;59.47
61361;BME280;47232;47.506;18.936;2022-10-16T07:26:29;99066.12;;;13.45;59.21
61361;BME280;47232;47.506;18.936;2022-10-16T07:28:55;99067.61;;;13.50;59.08
61361;BME280;47232;47.506;18.936;2022-10-16T07:31:22;99066.11;;;13.56;59.17
61361;BME280;47232;47.506;18.936;2022-10-16T07:33:48;99067.54;;;13.63;59.09
61361;BME280;47232;47.506;18.936;2022-10-16T07:36:19;99064.61;;;13.71;58.99
61361;BME280;47232;47.506;18.936;2022-10-16T07:38:45;99066.71;;;13.80;58.82
61361;BME280;47232;47.506;18.936;2022-10-16T07:41:26;99066.17;;;13.87;58.72
61361;BME280;47232;47.506;18.936;2022-10-16T07:43:52;99069.19;;;13.97;58.87
61361;BME280;47232;47.506;18.936;2022-10-16T07:46:19;99072.36;;;14.02;58.33
61361;BME280;47232;47.506;18.936;2022-10-16T07:48:45;99069.92;;;14.11;58.38
61361;BME280;47232;47.506;18.936;2022-10-16T07:51:14;99067.55;;;14.20;58.13
61361;BME280;47232;47.506;18.936;2022-10-16T07:53:40;99071.68;;;14.29;58.13
61361;BME280;47232;47.506;18.936;2022-10-16T07:56:06;99081.77;;;14.40;58.26
61361;BME280;47232;47.506;18.936;2022-10-16T07:58:34;99083.56;;;14.51;58.18
61361;BME280;47232;47.506;18.936;2022-10-16T08:01:04;99085.61;;;14.64;57.79
61361;BME280;47232;47.506;18.936;2022-10-16T08:03:30;99087.21;;;14.76;57.34
61361;BME280;47232;47.506;18.936;2022-10-16T08:05:57;99091.33;;;14.88;57.22
61361;BME280;47232;47.506;18.936;2022-10-16T08:08:23;99092.91;;;14.99;56.53
61361;BME280;47232;47.506;18.936;2022-10-16T08:10:48;99097.14;;;15.11;56.40
61361;BME280;47232;47.506;18.936;2022-10-16T08:13:13;99099.61;;;15.21;56.46
61361;BME280;47232;47.506;18.936;2022-10-16T08:15:43;99101.92;;;15.34;56.76
61361;BME280;47232;47.506;18.936;2022-10-16T08:18:10;99108.48;;;15.50;56.69
61361;BME280;47232;47.506;18.936;2022-10-16T08:20:36;99104.41;;;15.65;56.53
61361;BME280;47232;47.506;18.936;2022-10-16T08:23:02;99104.42;;;15.82;56.57
61361;BME280;47232;47.506;18.936;2022-10-16T08:25:28;99112.13;;;15.98;56.16
61361;BME280;47232;47.506;18.936;2022-10-16T08:27:54;99117.59;;;16.12;55.85
61361;BME280;47232;47.506;18.936;2022-10-16T08:30:22;99120.99;;;16.26;55.52
61361;BME280;47232;47.506;18.936;2022-10-16T08:32:48;99121.52;;;16.41;55.39
61361;BME280;47232;47.506;18.936;2022-10-16T08:35:14;99121.19;;;16.57;55.00
61361;BME280;47232;47.506;18.936;2022-10-16T08:37:40;99119.67;;;16.72;54.45
61361;BME280;47232;47.506;18.936;2022-10-16T08:40:14;99121.25;;;16.87;53.66
61361;BME280;47232;47.506;18.936;2022-10-16T08:48:43;99128.85;;;17.34;53.01
61361;BME280;47232;47.506;18.936;2022-10-16T08:51:14;99126.31;;;17.55;52.75
61361;BME280;47232;47.506;18.936;2022-10-16T08:53:57;99130.28;;;17.74;52.43
61361;BME280;47232;47.506;18.936;2022-10-16T08:56:24;99130.69;;;17.92;52.19
61361;BME280;47232;47.506;18.936;2022-10-16T08:58:52;99135.34;;;18.10;51.75
61361;BME280;47232;47.506;18.936;2022-10-16T09:01:21;99132.70;;;18.26;50.77
61361;BME280;47232;47.506;18.936;2022-10-16T09:12:20;99145.56;;;18.89;49.47
61361;BME280;47232;47.506;18.936;2022-10-16T09:17:34;99145.78;;;19.21;48.34
61361;BME280;47232;47.506;18.936;2022-10-16T09:20:33;99146.16;;;19.24;47.38
61361;BME280;47232;47.506;18.936;2022-10-16T09:25:30;99140.45;;;19.41;47.43
61361;BME280;47232;47.506;18.936;2022-10-16T09:27:56;99137.23;;;19.48;47.03
61361;BME280;47232;47.506;18.936;2022-10-16T09:30:29;99144.36;;;19.58;46.58
61361;BME280;47232;47.506;18.936;2022-10-16T09:32:57;99143.35;;;19.70;46.72
61361;BME280;47232;47.506;18.936;2022-10-16T09:37:56;99152.19;;;20.01;46.01
61361;BME280;47232;47.506;18.936;2022-10-16T09:42:54;99148.98;;;20.46;46.20
61361;BME280;47232;47.506;18.936;2022-10-16T09:45:23;99153.66;;;20.73;45.19
61361;BME280;47232;47.506;18.936;2022-10-16T09:47:49;99154.73;;;20.95;44.99
61361;BME280;47232;47.506;18.936;2022-10-16T09:50:24;99159.39;;;21.15;44.18
61361;BME280;47232;47.506;18.936;2022-10-16T09:53:12;99167.79;;;21.24;43.61
61361;BME280;47232;47.506;18.936;2022-10-16T09:55:49;99175.69;;;21.38;43.58
61361;BME280;47232;47.506;18.936;2022-10-16T09:58:15;99172.61;;;21.49;42.94
61361;BME280;47232;47.506;18.936;2022-10-16T10:00:42;99178.15;;;21.52;42.95
61361;BME280;47232;47.506;18.936;2022-10-16T10:05:58;99173.35;;;21.43;42.20
61361;BME280;47232;47.506;18.936;2022-10-16T10:08:24;99170.56;;;21.48;42.28
61361;BME280;47232;47.506;18.936;2022-10-16T10:10:49;99165.63;;;21.53;41.68
61361;BME280;47232;47.506;18.936;2022-10-16T10:13:20;99156.42;;;21.49;42.06
61361;BME280;47232;47.506;18.936;2022-10-16T10:15:47;99155.40;;;21.45;41.45
61361;BME280;47232;47.506;18.936;2022-10-16T10:18:18;99152.47;;;21.52;42.19
61361;BME280;47232;47.506;18.936;2022-10-16T10:20:45;99146.19;;;21.73;42.00
61361;BME280;47232;47.506;18.936;2022-10-16T10:23:29;99148.98;;;21.94;41.48
61361;BME280;47232;47.506;18.936;2022-10-16T10:26:20;99152.71;;;22.11;41.18
61361;BME280;47232;47.506;18.936;2022-10-16T10:31:36;99145.84;;;22.58;40.80
61361;BME280;47232;47.506;18.936;2022-10-16T10:37:04;99146.33;;;22.97;39.92
61361;BME280;47232;47.506;18.936;2022-10-16T10:39:43;99146.05;;;23.06;39.24
61361;BME280;47232;47.506;18.936;2022-10-16T10:42:32;99147.92;;;23.13;38.89
61361;BME280;47232;47.506;18.936;2022-10-16T10:50:33;99156.23;;;23.53;38.59
61361;BME280;47232;47.506;18.936;2022-10-16T11:01:23;99157.08;;;23.88;38.29
61361;BME280;47232;47.506;18.936;2022-10-16T11:07:09;99159.79;;;24.47;37.39
61361;BME280;47232;47.506;18.936;2022-10-16T11:09:52;99158.97;;;24.67;36.56
61361;BME280;47232;47.506;18.936;2022-10-16T11:12:23;99154.27;;;24.72;35.42
61361;BME280;47232;47.506;18.936;2022-10-16T11:17:46;99144.02;;;24.56;35.70
61361;BME280;47232;47.506;18.936;2022-10-16T11:20:25;99142.33;;;24.59;35.37
61361;BME280;47232;47.506;18.936;2022-10-16T11:22:58;99139.74;;;24.65;36.05
61361;BME280;47232;47.506;18.936;2022-10-16T11:25:30;99136.08;;;24.85;36.29
61361;BME280;47232;47.506;18.936;2022-10-16T11:30:39;99138.38;;;25.19;35.38
61361;BME280;47232;47.506;18.936;2022-10-16T11:38:38;99142.94;;;25.77;34.70
61361;BME280;47232;47.506;18.936;2022-10-16T11:44:44;99142.64;;;26.14;34.49
61361;BME280;47232;47.506;18.936;2022-10-16T11:49:43;99144.59;;;26.59;33.74
61361;BME280;47232;47.506;18.936;2022-10-16T11:55:01;99141.08;;;27.00;32.77
61361;BME280;47232;47.506;18.936;2022-10-16T11:57:38;99139.45;;;27.19;32.48
61361;BME280;47232;47.506;18.936;2022-10-16T12:00:09;99136.00;;;27.42;31.84
61361;BME280;47232;47.506;18.936;2022-10-16T12:05:40;99132.50;;;27.60;30.60
61361;BME280;47232;47.506;18.936;2022-10-16T12:08:16;99135.20;;;27.28;30.50
61361;BME280;47232;47.506;18.936;2022-10-16T12:10:44;99136.98;;;26.99;30.69
61361;BME280;47232;47.506;18.936;2022-10-16T12:13:34;99136.10;;;26.74;30.95
61361;BME280;47232;47.506;18.936;2022-10-16T12:18:29;99130.10;;;26.25;32.31
61361;BME280;47232;47.506;18.936;2022-10-16T12:20:57;99131.91;;;26.43;32.62
61361;BME280;47232;47.506;18.936;2022-10-16T12:23:32;99128.63;;;26.64;32.24
61361;BME280;47232;47.506;18.936;2022-10-16T12:26:00;99125.35;;;26.81;31.80
61361;BME280;47232;47.506;18.936;2022-10-16T12:28:32;99124.25;;;26.98;31.30
61361;BME280;47232;47.506;18.936;2022-10-16T12:31:01;99121.14;;;27.11;31.23
61361;BME280;47232;47.506;18.936;2022-10-16T12:33:29;99121.52;;;27.31;31.25
61361;BME280;47232;47.506;18.936;2022-10-16T12:35:57;99120.80;;;27.48;30.66
61361;BME280;47232;47.506;18.936;2022-10-16T12:38:29;99120.40;;;27.59;30.69
61361;BME280;47232;47.506;18.936;2022-10-16T12:41:01;99121.46;;;27.68;30.32
61361;BME280;47232;47.506;18.936;2022-10-16T12:43:40;99119.38;;;27.73;29.93
61361;BME280;47232;47.506;18.936;2022-10-16T12:48:35;99126.33;;;27.97;29.91
61361;BME280;47232;47.506;18.936;2022-10-16T12:51:22;99123.92;;;28.10;29.97
61361;BME280;47232;47.506;18.936;2022-10-16T12:54:04;99121.63;;;28.36;29.89
61361;BME280;47232;47.506;18.936;2022-10-16T12:59:01;99129.16;;;28.68;29.30
61361;BME280;47232;47.506;18.936;2022-10-16T13:04:29;99130.86;;;29.32;29.30
61361;BME280;47232;47.506;18.936;2022-10-16T13:12:53;99130.74;;;29.79;27.87
61361;BME280;47232;47.506;18.936;2022-10-16T13:15:35;99135.30;;;29.92;26.97
61361;BME280;47232;47.506;18.936;2022-10-16T13:26:21;99146.27;;;30.35;26.40
61361;BME280;47232;47.506;18.936;2022-10-16T13:28:49;99146.98;;;30.61;26.62
61361;BME280;47232;47.506;18.936;2022-10-16T13:31:18;99146.38;;;30.89;26.43
61361;BME280;47232;47.506;18.936;2022-10-16T13:33:51;99149.29;;;31.26;26.36
61361;BME280;47232;47.506;18.936;2022-10-16T13:42:07;99142.48;;;32.33;25.06
61361;BME280;47232;47.506;18.936;2022-10-16T13:44:49;99140.66;;;32.61;24.73
61361;BME280;47232;47.506;18.936;2022-10-16T13:47:21;99142.73;;;32.91;24.19
61361;BME280;47232;47.506;18.936;2022-10-16T13:49:48;99143.77;;;33.24;23.75
61361;BME280;47232;47.506;18.936;2022-10-16T13:52:23;99149.02;;;33.57;23.52
61361;BME280;47232;47.506;18.936;2022-10-16T13:54:49;99153.21;;;33.81;22.60
61361;BME280;47232;47.506;18.936;2022-10-16T13:57:15;99155.31;;;33.92;22.37
61361;BME280;47232;47.506;18.936;2022-10-16T13:59:41;99157.58;;;34.10;21.65
61361;BME280;47232;47.506;18.936;2022-10-16T14:04:54;99160.45;;;34.46;21.07
61361;BME280;47232;47.506;18.936;2022-10-16T14:07:25;99160.34;;;34.62;20.86
61361;BME280;47232;47.506;18.936;2022-10-16T14:09:53;99156.05;;;34.73;20.64
61361;BME280;47232;47.506;18.936;2022-10-16T14:12:20;99154.09;;;34.97;20.51
61361;BME280;47232;47.506;18.936;2022-10-16T14:14:49;99154.35;;;35.27;20.43
61361;BME280;47232;47.506;18.936;2022-10-16T14:17:16;99158.48;;;35.52;19.98
61361;BME280;47232;47.506;18.936;2022-10-16T14:19:46;99155.73;;;35.73;20.13
61361;BME280;47232;47.506;18.936;2022-10-16T14:22:32;99152.58;;;36.05;19.97
61361;BME280;47232;47.506;18.936;2022-10-16T14:24:58;99155.77;;;36.47;19.19
61361;BME280;47232;47.506;18.936;2022-10-16T14:32:32;99154.84;;;37.14;17.78
61361;BME280;47232;47.506;18.936;2022-10-16T14:34:58;99155.53;;;37.23;18.33
61361;BME280;47232;47.506;18.936;2022-10-16T14:37:28;99156.35;;;37.64;17.72
61361;BME280;47232;47.506;18.936;2022-10-16T14:39:55;99157.45;;;38.12;17.53
61361;BME280;47232;47.506;18.936;2022-10-16T14:42:22;99162.77;;;38.54;16.57
61361;BME280;47232;47.506;18.936;2022-10-16T14:44:52;99161.36;;;38.89;16.50
61361;BME280;47232;47.506;18.936;2022-10-16T14:47:20;99163.43;;;39.23;16.24
61361;BME280;47232;47.506;18.936;2022-10-16T14:49:50;99167.94;;;39.51;15.80
61361;BME280;47232;47.506;18.936;2022-10-16T14:52:16;99169.16;;;39.68;15.63
61361;BME280;47232;47.506;18.936;2022-10-16T14:54:42;99169.23;;;39.79;15.78
61361;BME280;47232;47.506;18.936;2022-10-16T14:57:34;99169.89;;;39.86;15.49
61361;BME280;47232;47.506;18.936;2022-10-16T15:00:01;99167.41;;;39.72;15.29
61361;BME280;47232;47.506;18.936;2022-10-16T15:02:32;99163.87;;;39.68;15.35
61361;BME280;47232;47.506;18.936;2022-10-16T15:05:07;99161.75;;;39.67;15.51